Time;durP1;ratioP1;P1;durP2;ratioP2;P2;SDS_P1;SDS_P2;PMS_P1;PMS_P2;Temp;Humidity;BMP_temperature;BMP_pressure;BME280_temperature;BME280_humidity;BME280_pressure;Samples;Min_cycle;Max_cycle;Signal;HPM_P1;HPM_P2
2021/05/21 00:00:43;;;;;;;6.13;2.57;;;;;;;11.38;77.33;96088.44;5019767;28;20505;-92
2021/05/21 00:03:09;;;;;;;4.10;3.10;;;;;;;11.39;76.87;96090.59;5022257;28;20484;-92
2021/05/21 00:05:35;;;;;;;7.20;3.60;;;;;;;11.36;77.59;96080.16;5034244;28;20455;-92
2021/05/21 00:08:02;;;;;;;6.73;3.30;;;;;;;11.31;77.32;96076.41;5019949;28;20995;-91
2021/05/21 00:10:28;;;;;;;8.17;3.97;;;;;;;11.31;77.11;96081.81;5018998;28;20449;-92
2021/05/21 00:12:54;;;;;;;7.93;3.43;;;;;;;11.26;76.88;96072.66;5019612;28;20471;-92
2021/05/21 00:15:21;;;;;;;4.33;2.80;;;;;;;11.32;76.80;96080.53;5019120;28;20924;-90
2021/05/21 00:17:47;;;;;;;3.33;2.67;;;;;;;11.38;76.13;96067.53;5018570;28;20776;-90
2021/05/21 00:20:14;;;;;;;5.30;2.80;;;;;;;11.34;76.15;96071.91;5018732;28;20441;-90
2021/05/21 00:22:41;;;;;;;5.43;2.70;;;;;;;11.33;76.10;96076.59;5018664;28;20487;-90
2021/05/21 00:25:08;;;;;;;4.00;2.77;;;;;;;11.34;76.32;96061.78;5018559;28;20446;-90
2021/05/21 00:27:34;;;;;;;4.10;2.93;;;;;;;11.33;76.14;96054.97;5018098;28;20474;-90
2021/05/21 00:30:01;;;;;;;4.70;3.23;;;;;;;11.38;75.77;96056.72;5018472;28;20512;-90
2021/05/21 00:32:28;;;;;;;3.70;3.07;;;;;;;11.36;75.21;96048.47;5018227;28;20506;-90
2021/05/21 00:34:54;;;;;;;4.60;3.50;;;;;;;11.29;74.96;96038.44;5018923;28;20502;-90
2021/05/21 00:37:20;;;;;;;2.53;2.13;;;;;;;11.43;74.33;96038.88;5019341;28;20791;-90
2021/05/21 00:39:46;;;;;;;2.47;1.70;;;;;;;11.53;73.79;96040.38;5019694;28;20922;-90
2021/05/21 00:42:12;;;;;;;2.47;1.60;;;;;;;11.42;73.36;96032.75;5018667;28;20494;-90
2021/05/21 00:44:38;;;;;;;3.73;1.93;;;;;;;11.46;73.67;96033.09;5021011;28;20426;-90
2021/05/21 00:47:05;;;;;;;1.93;1.77;;;;;;;11.48;73.12;96035.94;5020191;28;20448;-90
2021/05/21 00:49:32;;;;;;;2.17;1.90;;;;;;;11.45;73.18;96037.03;5020445;28;20445;-90
2021/05/21 00:52:02;;;;;;;2.43;1.87;;;;;;;11.36;74.09;96032.25;5020661;28;20510;-90
2021/05/21 00:54:28;;;;;;;2.97;2.50;;;;;;;11.38;73.71;96034.41;5019932;28;20578;-90
2021/05/21 00:56:54;;;;;;;1.40;1.30;;;;;;;11.35;73.89;96025.41;5020397;28;20511;-90
2021/05/21 00:59:21;;;;;;;2.30;2.10;;;;;;;11.37;73.58;96016.78;5021076;28;20553;-90
2021/05/21 01:01:47;;;;;;;2.33;1.63;;;;;;;11.31;74.32;96008.88;5020326;28;20618;-90
2021/05/21 01:04:14;;;;;;;6.13;2.00;;;;;;;11.32;74.40;96010.31;5020775;28;20898;-90
2021/05/21 01:06:41;;;;;;;2.63;2.03;;;;;;;11.40;73.41;96011.00;5019993;28;20426;-90
2021/05/21 01:09:07;;;;;;;3.73;1.80;;;;;;;11.38;74.19;95993.88;5018154;28;20963;-89
2021/05/21 01:11:33;;;;;;;3.13;1.93;;;;;;;11.38;73.98;95993.88;5018585;28;20408;-89
2021/05/21 01:14:00;;;;;;;6.43;1.60;;;;;;;11.33;74.02;95979.34;5018903;28;20948;-89
2021/05/21 01:16:26;;;;;;;3.73;1.80;;;;;;;11.43;74.04;95961.25;5019237;28;20434;-90
2021/05/21 01:18:52;;;;;;;2.13;1.77;;;;;;;11.47;73.62;95971.63;5017927;28;20423;-89
2021/05/21 01:21:19;;;;;;;3.83;2.00;;;;;;;11.45;73.79;95988.41;5018622;28;20853;-90
2021/05/21 01:23:45;;;;;;;2.93;1.80;;;;;;;11.44;73.68;95984.28;5018113;28;20498;-90
2021/05/21 01:26:12;;;;;;;5.63;1.80;;;;;;;11.36;73.81;95980.94;5017929;28;20452;-90
2021/05/21 01:28:38;;;;;;;1.80;1.67;;;;;;;11.27;73.92;95979.59;5018438;28;20987;-90
2021/05/21 01:31:04;;;;;;;3.03;1.57;;;;;;;11.24;74.43;95983.38;5019385;28;20422;-90
2021/05/21 01:33:30;;;;;;;3.17;1.43;;;;;;;11.27;73.86;95976.88;5021646;28;20441;-89
2021/05/21 01:35:57;;;;;;;2.40;1.40;;;;;;;11.29;73.70;95979.72;5019656;28;20505;-90
2021/05/21 01:38:24;;;;;;;3.07;1.60;;;;;;;11.26;74.30;95975.44;5017556;28;20427;-91
2021/05/21 01:40:50;;;;;;;2.07;1.47;;;;;;;11.22;73.92;95969.72;5017913;28;20837;-91
2021/05/21 01:43:17;;;;;;;1.60;1.50;;;;;;;11.28;73.24;95967.50;5018678;28;20575;-91
2021/05/21 01:45:43;;;;;;;3.20;1.27;;;;;;;11.19;73.55;95967.41;5018047;28;20896;-90
2021/05/21 01:48:11;;;;;;;2.17;1.53;;;;;;;11.22;74.06;95963.59;5018402;28;20486;-90
2021/05/21 01:50:37;;;;;;;1.87;1.27;;;;;;;11.16;73.70;95958.41;5018365;28;20448;-91
2021/05/21 01:53:04;;;;;;;2.30;1.60;;;;;;;11.21;73.31;95962.88;5006415;28;20531;-91
2021/05/21 01:55:31;;;;;;;2.70;1.63;;;;;;;11.24;72.89;95967.16;4998612;28;20532;-91
2021/05/21 01:57:57;;;;;;;2.63;1.50;;;;;;;11.24;72.85;95961.06;4998762;28;20523;-91
2021/05/21 02:00:23;;;;;;;3.63;1.60;;;;;;;11.26;72.71;95953.13;4998025;28;20428;-90
2021/05/21 02:02:50;;;;;;;3.70;1.50;;;;;;;11.21;72.83;95952.06;4998010;28;20495;-91
2021/05/21 02:05:16;;;;;;;2.70;1.53;;;;;;;11.28;72.40;95945.88;4998023;28;20440;-91
2021/05/21 02:07:42;;;;;;;1.83;1.30;;;;;;;11.30;72.11;95948.03;4997775;28;20467;-91
2021/05/21 02:10:10;;;;;;;1.87;1.40;;;;;;;11.37;71.67;95951.94;4997614;28;20412;-90
2021/05/21 02:12:38;;;;;;;2.43;1.60;;;;;;;11.37;71.62;95943.84;4998371;28;20532;-90
2021/05/21 02:15:08;;;;;;;1.77;1.43;;;;;;;11.33;72.07;95944.22;4998183;28;20404;-90
2021/05/21 02:17:34;;;;;;;2.83;1.43;;;;;;;11.35;72.07;95938.97;4998053;28;20468;-90
2021/05/21 02:20:02;;;;;;;6.30;1.63;;;;;;;11.34;71.86;95937.53;4998044;28;20545;-90
2021/05/21 02:22:30;;;;;;;3.30;1.20;;;;;;;11.35;71.68;95935.56;4997908;28;20562;-91
2021/05/21 02:24:58;;;;;;;3.90;1.53;;;;;;;11.30;71.96;95923.72;4998697;28;20420;-91
2021/05/21 02:27:24;;;;;;;3.03;1.23;;;;;;;11.33;71.53;95911.09;4998644;28;20900;-90
2021/05/21 02:29:52;;;;;;;2.37;1.20;;;;;;;11.38;71.49;95916.25;4997744;28;20453;-90
2021/05/21 02:32:18;;;;;;;2.63;1.10;;;;;;;11.30;71.55;95918.34;4998499;28;20556;-90
2021/05/21 02:34:45;;;;;;;3.43;1.77;;;;;;;11.33;71.76;95925.31;4997413;28;20507;-90
2021/05/21 02:37:12;;;;;;;2.27;1.40;;;;;;;11.38;71.20;95907.44;4997959;28;20521;-90
2021/05/21 02:39:41;;;;;;;2.53;1.27;;;;;;;11.37;71.68;95914.81;4997173;28;20905;-90
2021/05/21 02:42:08;;;;;;;4.80;1.40;;;;;;;11.24;72.35;95907.06;4997030;28;20477;-90
2021/05/21 02:44:34;;;;;;;1.93;1.20;;;;;;;11.27;71.94;95898.56;4997135;28;20453;-90
2021/05/21 02:47:01;;;;;;;2.87;1.50;;;;;;;11.20;71.93;95895.91;4997333;28;20445;-91
2021/05/21 02:49:29;;;;;;;3.43;1.30;;;;;;;11.20;71.78;95896.63;4997315;28;20419;-90
2021/05/21 02:51:55;;;;;;;2.43;1.40;;;;;;;11.17;72.49;95888.94;5000183;28;20553;-90
2021/05/21 02:54:22;;;;;;;2.77;1.40;;;;;;;11.15;72.65;95889.47;5017238;28;20452;-90
2021/05/21 02:56:48;;;;;;;1.90;1.37;;;;;;;11.15;72.87;95896.88;5017400;28;20419;-91
2021/05/21 02:59:14;;;;;;;2.57;1.47;;;;;;;11.17;72.53;95886.94;5017368;28;20573;-91
2021/05/21 03:01:40;;;;;;;7.53;1.43;;;;;;;11.21;72.46;95886.56;5017089;28;20944;-91
2021/05/21 03:04:08;;;;;;;1.43;1.33;;;;;;;11.14;72.41;95881.94;5017049;28;20456;-90
2021/05/21 03:06:34;;;;;;;2.73;1.60;;;;;;;11.04;72.72;95875.72;5017305;28;20897;-90
2021/05/21 03:09:00;;;;;;;1.77;1.40;;;;;;;11.14;73.00;95881.94;5017904;28;20517;-91
2021/05/21 03:11:27;;;;;;;2.30;1.40;;;;;;;11.07;72.64;95882.72;5018084;28;20445;-91
2021/05/21 03:13:53;;;;;;;2.37;1.57;;;;;;;11.03;73.17;95875.00;5020816;28;20414;-91
2021/05/21 03:16:19;;;;;;;2.90;1.33;;;;;;;11.02;73.05;95867.47;5024608;28;20440;-90
2021/05/21 03:18:45;;;;;;;3.63;1.40;;;;;;;11.05;73.19;95861.69;5017405;28;20454;-90
2021/05/21 03:21:12;;;;;;;2.37;1.47;;;;;;;11.01;73.27;95861.38;5017023;28;20519;-91
2021/05/21 03:23:38;;;;;;;2.90;1.30;;;;;;;11.05;72.69;95852.88;5000284;28;20575;-91
2021/05/21 03:26:04;;;;;;;1.80;1.33;;;;;;;11.07;72.54;95847.63;4997247;28;20972;-91
2021/05/21 03:28:30;;;;;;;3.60;1.23;;;;;;;11.04;73.08;95833.25;4998149;28;20533;-91
2021/05/21 03:30:57;;;;;;;2.40;1.23;;;;;;;11.05;72.74;95832.00;4996775;28;20426;-90
2021/05/21 03:33:23;;;;;;;1.60;1.23;;;;;;;11.02;72.43;95824.28;4997347;28;20446;-91
2021/05/21 03:35:49;;;;;;;1.47;1.27;;;;;;;11.03;72.36;95828.41;4997658;28;20494;-91
2021/05/21 03:38:16;;;;;;;1.77;1.30;;;;;;;10.95;73.35;95828.50;5011608;28;20435;-89
2021/05/21 03:40:42;;;;;;;1.53;1.40;;;;;;;10.94;72.95;95835.16;5018151;28;20495;-89
2021/05/21 03:43:09;;;;;;;2.03;1.00;;;;;;;10.97;72.85;95819.81;5017829;28;20498;-90
2021/05/21 03:45:35;;;;;;;6.43;2.00;;;;;;;10.95;73.04;95830.47;5003977;28;20515;-90
2021/05/21 03:48:02;;;;;;;1.97;1.60;;;;;;;10.94;73.46;95829.75;4997613;28;20473;-91
2021/05/21 03:50:28;;;;;;;1.30;1.20;;;;;;;10.87;73.95;95833.22;4997497;28;20940;-90
2021/05/21 03:52:54;;;;;;;2.57;1.80;;;;;;;10.91;72.90;95830.16;4999562;28;20552;-91
2021/05/21 03:55:22;;;;;;;2.57;1.47;;;;;;;11.01;72.71;95830.94;4997464;28;20440;-90
2021/05/21 03:57:48;;;;;;;2.17;1.50;;;;;;;10.97;72.88;95831.34;4996578;28;20453;-91
2021/05/21 04:00:17;;;;;;;2.73;1.67;;;;;;;11.04;72.64;95835.22;4996984;28;20514;-91
2021/05/21 04:02:44;;;;;;;2.20;1.40;;;;;;;11.08;72.11;95832.88;4998886;28;20484;-91
2021/05/21 04:05:11;;;;;;;3.80;2.00;;;;;;;11.07;72.14;95824.03;5000899;28;20452;-91
2021/05/21 04:07:37;;;;;;;4.60;2.17;;;;;;;11.08;72.21;95832.88;5001699;28;20484;-91
2021/05/21 04:10:04;;;;;;;2.90;1.60;;;;;;;11.11;72.37;95829.78;5001194;28;20423;-90
2021/05/21 04:12:31;;;;;;;3.07;1.30;;;;;;;11.11;71.78;95824.38;5000952;28;20464;-92
2021/05/21 04:14:57;;;;;;;1.63;1.17;;;;;;;11.19;71.67;95813.47;5001113;28;20488;-92
2021/05/21 04:17:23;;;;;;;3.27;1.27;;;;;;;11.16;72.29;95819.97;5001017;28;20455;-91
2021/05/21 04:19:50;;;;;;;2.10;1.90;;;;;;;11.10;72.18;95809.44;5001726;28;20815;-90
2021/05/21 04:22:16;;;;;;;2.17;1.03;;;;;;;11.10;72.24;95811.41;5004686;28;20512;-90
2021/05/21 04:24:43;;;;;;;4.07;1.40;;;;;;;11.16;72.06;95803.78;5001325;28;20520;-91
2021/05/21 04:27:10;;;;;;;2.53;1.37;;;;;;;11.18;72.31;95801.94;5001961;28;20445;-90
2021/05/21 04:29:37;;;;;;;5.00;1.50;;;;;;;11.21;72.09;95800.84;5002667;28;20623;-90
2021/05/21 04:32:05;;;;;;;2.70;1.30;;;;;;;11.22;71.68;95802.28;5004336;28;20906;-90
2021/05/21 04:34:31;;;;;;;1.80;1.37;;;;;;;11.27;72.15;95806.00;5000380;28;20491;-90
2021/05/21 04:36:58;;;;;;;1.40;1.17;;;;;;;11.28;71.95;95802.75;5001181;28;20514;-91
2021/05/21 04:39:24;;;;;;;3.23;1.43;;;;;;;11.37;71.91;95798.66;5013803;28;20429;-90
2021/05/21 04:41:50;;;;;;;2.17;1.63;;;;;;;11.35;72.03;95798.53;5019721;28;20454;-90
2021/05/21 04:44:16;;;;;;;1.50;1.40;;;;;;;11.50;71.12;95800.31;5013692;28;20476;-90
2021/05/21 04:46:43;;;;;;;4.00;1.33;;;;;;;11.50;70.67;95800.31;5002708;28;20445;-90
2021/05/21 04:49:09;;;;;;;5.73;1.70;;;;;;;11.52;70.97;95803.91;5002855;28;20548;-90
2021/05/21 04:51:35;;;;;;;2.93;1.13;;;;;;;11.60;70.95;95796.41;5001722;28;20440;-90
2021/05/21 04:54:02;;;;;;;2.70;1.80;;;;;;;11.62;70.28;95801.25;5021190;28;20883;-90
2021/05/21 04:56:28;;;;;;;2.20;1.20;;;;;;;11.72;70.37;95794.66;5021856;28;20432;-90
2021/05/21 04:58:54;;;;;;;2.40;1.50;;;;;;;11.74;70.24;95792.13;5022085;28;20456;-90
2021/05/21 05:01:20;;;;;;;3.93;1.10;;;;;;;11.78;70.16;95781.59;5020137;28;20490;-90
2021/05/21 05:03:47;;;;;;;3.70;1.33;;;;;;;11.77;70.21;95782.88;5021287;28;20490;-90
2021/05/21 05:06:13;;;;;;;2.57;1.40;;;;;;;11.90;69.84;95776.41;5020819;28;20432;-90
2021/05/21 05:08:40;;;;;;;2.10;1.17;;;;;;;12.05;69.39;95778.88;5020399;28;20456;-90
2021/05/21 05:11:07;;;;;;;1.50;1.20;;;;;;;12.13;68.73;95765.22;5020876;28;20498;-89
2021/05/21 05:13:33;;;;;;;4.30;1.60;;;;;;;12.19;68.52;95763.66;5020126;28;20937;-89
2021/05/21 05:15:59;;;;;;;3.37;1.10;;;;;;;12.29;68.29;95761.72;5020358;28;20426;-90
2021/05/21 05:18:25;;;;;;;4.20;1.00;;;;;;;12.42;67.53;95768.00;5021997;28;20451;-89
2021/05/21 05:20:55;;;;;;;3.90;1.10;;;;;;;12.44;67.49;95760.75;5021890;28;20433;-91
2021/05/21 05:23:21;;;;;;;4.70;1.20;;;;;;;12.60;66.57;95761.91;5008404;28;20511;-90
2021/05/21 05:25:48;;;;;;;4.60;1.10;;;;;;;12.65;66.07;95757.50;5003439;28;20520;-88
2021/05/21 05:28:16;;;;;;;2.37;1.17;;;;;;;12.74;65.50;95754.81;5002313;28;20452;-90
2021/05/21 05:30:42;;;;;;;3.20;1.10;;;;;;;12.86;65.00;95744.13;5002836;28;20453;-88
2021/05/21 05:33:11;;;;;;;3.27;1.20;;;;;;;12.96;64.44;95738.72;5003980;28;20527;-89
2021/05/21 05:35:37;;;;;;;2.83;1.10;;;;;;;13.01;64.23;95741.13;5001999;28;20520;-90
2021/05/21 05:38:04;;;;;;;3.17;1.23;;;;;;;13.08;64.05;95742.25;5001458;28;20449;-89
2021/05/21 05:40:33;;;;;;;2.80;1.30;;;;;;;13.09;63.64;95746.44;5002102;28;20459;-90
2021/05/21 05:42:59;;;;;;;3.90;0.97;;;;;;;13.13;63.84;95739.28;4999929;28;20548;-90
2021/05/21 05:45:25;;;;;;;1.67;1.30;;;;;;;13.11;63.88;95738.44;4999965;28;20534;-89
2021/05/21 05:47:51;;;;;;;3.80;1.33;;;;;;;13.08;64.21;95734.88;5001207;28;20448;-89
2021/05/21 05:50:17;;;;;;;2.70;1.33;;;;;;;13.09;64.05;95735.59;5003312;28;20515;-90
2021/05/21 05:52:44;;;;;;;3.60;1.30;;;;;;;13.18;63.19;95732.88;5001889;28;20469;-92
2021/05/21 05:55:14;;;;;;;1.67;1.10;;;;;;;13.22;63.67;95738.56;5001787;28;20441;-89
2021/05/21 05:57:41;;;;;;;4.83;1.23;;;;;;;13.32;63.29;95747.38;5002119;28;20484;-90
2021/05/21 06:00:08;;;;;;;9.90;1.67;;;;;;;13.32;63.45;95750.09;5006711;28;20531;-90
2021/05/21 06:02:35;;;;;;;14.13;1.43;;;;;;;13.37;63.36;95740.25;5006436;28;20513;-90
2021/05/21 06:05:11;;;;;;;4.73;1.17;;;;;;;13.37;63.55;95732.81;5006401;28;20434;-90
2021/05/21 06:07:42;;;;;;;1.93;1.07;;;;;;;13.53;63.19;95732.53;5005841;28;20434;-90
2021/05/21 06:10:11;;;;;;;4.50;1.10;;;;;;;13.72;62.51;95732.47;5004728;28;20438;-90
2021/05/21 06:13:16;;;;;;;2.30;1.00;;;;;;;13.91;61.55;95733.09;5002882;28;20491;-90
2021/05/21 06:18:49;;;;;;;3.07;1.20;;;;;;;13.97;61.44;95724.63;5002696;28;20933;-90
2021/05/21 06:21:17;;;;;;;2.27;1.00;;;;;;;14.02;61.00;95728.34;5001562;28;20915;-90
2021/05/21 06:23:45;;;;;;;3.07;1.27;;;;;;;14.09;60.75;95733.59;5002848;28;20509;-90
2021/05/21 06:26:18;;;;;;;5.00;1.60;;;;;;;14.20;60.30;95729.53;5002391;28;20445;-90
2021/05/21 06:28:45;;;;;;;2.67;1.50;;;;;;;14.35;59.71;95731.88;5001959;28;20425;-90
2021/05/21 06:31:13;;;;;;;3.10;1.70;;;;;;;14.37;59.13;95737.47;5081578;23;20499;-91
2021/05/21 06:33:40;;;;;;;4.97;1.57;;;;;;;14.37;59.64;95726.59;5041276;28;20520;-90
2021/05/21 06:36:06;;;;;;;8.73;1.73;;;;;;;14.38;59.66;95725.28;5041449;28;20431;-89
2021/05/21 06:38:41;;;;;;;7.20;1.20;;;;;;;14.35;59.61;95721.03;5042411;28;20467;-89
2021/05/21 06:41:09;;;;;;;4.80;1.70;;;;;;;14.28;60.20;95724.63;5042598;28;20466;-90
2021/05/21 06:43:45;;;;;;;3.60;1.60;;;;;;;14.28;60.48;95719.22;5045704;28;20483;-90
2021/05/21 06:46:16;;;;;;;3.30;1.73;;;;;;;14.42;60.10;95718.13;5041413;28;20412;-90
2021/05/21 06:48:45;;;;;;;2.97;1.50;;;;;;;14.41;60.68;95716.69;5041664;28;20429;-91
2021/05/21 06:51:12;;;;;;;5.30;1.90;;;;;;;14.47;61.06;95714.38;5041923;28;20470;-90
2021/05/21 06:53:38;;;;;;;3.17;1.07;;;;;;;14.58;60.32;95713.03;5044813;28;20467;-89
2021/05/21 06:56:05;;;;;;;1.40;1.20;;;;;;;14.61;60.19;95711.88;5044812;28;20458;-90
2021/05/21 06:58:31;;;;;;;9.83;1.40;;;;;;;14.65;60.08;95711.41;5043250;28;20536;-89
2021/05/21 07:00:58;;;;;;;5.10;1.23;;;;;;;14.57;59.98;95700.72;5048375;28;20398;-90
2021/05/21 07:03:31;;;;;;;6.83;1.40;;;;;;;14.67;59.83;95701.38;5057387;28;20490;-92
2021/05/21 07:05:57;;;;;;;5.23;1.40;;;;;;;14.79;59.31;95704.13;5056994;28;20448;-90
2021/05/21 07:08:28;;;;;;;3.63;1.10;;;;;;;14.66;59.18;95696.53;5053529;28;20444;-90
2021/05/21 07:10:55;;;;;;;4.03;1.43;;;;;;;14.64;59.56;95696.41;5041884;28;20439;-91
2021/05/21 07:13:22;;;;;;;7.43;1.30;;;;;;;14.72;59.38;95694.91;5042874;28;20482;-90
2021/05/21 07:15:50;;;;;;;6.00;1.40;;;;;;;14.66;60.02;95691.81;5045178;28;20451;-90
2021/05/21 07:18:16;;;;;;;2.20;1.40;;;;;;;14.67;60.49;95704.09;5048229;28;20438;-90
2021/05/21 07:20:47;;;;;;;5.20;1.37;;;;;;;14.71;60.46;95690.78;5050438;28;20455;-90
2021/05/21 07:23:15;;;;;;;5.83;1.87;;;;;;;14.80;60.56;95695.41;5055242;28;20450;-92
2021/05/21 07:25:50;;;;;;;4.07;1.73;;;;;;;14.69;60.75;95701.50;5056386;28;20438;-92
2021/05/21 07:28:17;;;;;;;6.63;1.70;;;;;;;14.67;60.71;95695.94;5057073;28;20411;-91
2021/05/21 07:30:45;;;;;;;4.03;1.53;;;;;;;14.79;60.51;95696.72;5049103;28;20485;-90
2021/05/21 07:33:19;;;;;;;5.33;1.60;;;;;;;14.78;60.26;95689.88;5050130;28;20508;-90
2021/05/21 07:35:55;;;;;;;5.27;1.50;;;;;;;14.84;59.98;95681.38;5044663;28;20454;-90
2021/05/21 07:38:24;;;;;;;4.20;1.10;;;;;;;14.89;59.53;95691.91;5046709;28;20459;-90
2021/05/21 07:40:51;;;;;;;1.90;1.13;;;;;;;14.93;59.83;95684.03;5051788;28;20443;-90
2021/05/21 07:43:18;;;;;;;2.20;1.00;;;;;;;14.85;59.51;95691.66;5051165;28;20482;-89
2021/05/21 07:45:49;;;;;;;3.87;1.10;;;;;;;14.90;59.41;95687.91;5049786;28;20474;-89
2021/05/21 07:48:15;;;;;;;10.70;1.40;;;;;;;14.95;59.02;95686.84;5053350;28;20432;-92
2021/05/21 07:50:42;;;;;;;4.20;1.00;;;;;;;14.89;58.91;95678.31;5059365;28;20429;-91
2021/05/21 07:53:10;;;;;;;2.03;1.37;;;;;;;14.92;58.60;95684.59;5047413;28;20446;-90
2021/05/21 07:55:36;;;;;;;7.97;1.30;;;;;;;14.98;58.68;95693.81;5047907;28;20440;-92
2021/05/21 07:58:03;;;;;;;1.10;0.83;;;;;;;15.09;57.34;95697.88;5047888;28;20493;-93
2021/05/21 08:00:30;;;;;;;4.73;1.10;;;;;;;15.09;56.93;95680.88;5049169;28;20550;-92
2021/05/21 08:02:58;;;;;;;2.67;1.20;;;;;;;15.12;57.23;95691.28;5049974;28;20483;-92
2021/05/21 08:05:24;;;;;;;2.33;1.20;;;;;;;15.16;57.00;95686.06;5050951;28;20463;-92
2021/05/21 08:07:51;;;;;;;2.30;0.90;;;;;;;15.14;57.34;95677.81;5050263;28;20444;-92
2021/05/21 08:10:24;;;;;;;3.00;1.00;;;;;;;15.20;57.50;95677.47;5051960;28;20735;-92
2021/05/21 08:12:51;;;;;;;4.30;1.30;;;;;;;15.25;57.33;95671.69;5048196;28;20892;-90
2021/05/21 08:15:17;;;;;;;2.40;1.17;;;;;;;15.35;57.26;95666.84;5045025;28;20437;-90
2021/05/21 08:17:43;;;;;;;1.27;0.87;;;;;;;15.35;57.49;95660.69;5047348;28;20639;-91
2021/05/21 08:20:11;;;;;;;4.00;1.30;;;;;;;15.39;57.57;95652.78;5048908;28;20798;-93
2021/05/21 08:22:47;;;;;;;3.07;1.23;;;;;;;15.38;57.35;95654.09;5047151;28;20541;-92
2021/05/21 08:25:14;;;;;;;3.90;1.20;;;;;;;15.39;57.45;95647.34;5047195;28;20465;-91
2021/05/21 08:28:05;;;;;;;3.10;1.43;;;;;;;15.34;57.85;95640.97;5047522;28;20478;-93
2021/05/21 08:30:31;;;;;;;2.67;0.90;;;;;;;15.48;57.06;95646.56;5045102;28;20498;-91
2021/05/21 08:32:57;;;;;;;2.60;1.10;;;;;;;15.53;57.09;95643.50;5046277;28;21011;-91
2021/05/21 08:35:25;;;;;;;4.53;1.17;;;;;;;15.52;57.05;95633.91;5047536;28;20579;-91
2021/05/21 08:37:52;;;;;;;2.83;1.30;;;;;;;15.51;56.74;95620.91;5047166;28;20966;-90
2021/05/21 08:40:23;;;;;;;2.77;1.90;;;;;;;15.51;57.37;95631.78;5045797;28;20451;-91
2021/05/21 08:42:57;;;;;;;3.83;1.43;;;;;;;15.46;56.47;95630.09;5043860;28;20491;-91
2021/05/21 08:45:28;;;;;;;2.90;1.20;;;;;;;15.55;56.44;95626.59;5044357;28;20477;-90
2021/05/21 08:47:54;;;;;;;2.10;1.00;;;;;;;15.58;56.92;95619.97;5044273;28;20451;-91
2021/05/21 08:50:21;;;;;;;1.20;1.07;;;;;;;15.63;56.73;95610.03;5042821;28;20911;-90
2021/05/21 08:52:48;;;;;;;8.40;1.30;;;;;;;15.58;56.45;95603.66;5043167;28;20487;-91
2021/05/21 08:55:16;;;;;;;7.47;1.00;;;;;;;15.63;56.81;95594.41;5045976;28;20455;-92
2021/05/21 08:57:43;;;;;;;1.27;0.77;;;;;;;15.61;56.66;95621.50;5046320;28;20530;-91
2021/05/21 09:00:10;;;;;;;3.50;1.00;;;;;;;15.60;56.49;95613.94;5044940;28;20538;-90
2021/05/21 09:02:39;;;;;;;1.20;0.70;;;;;;;15.60;57.03;95605.78;5045543;28;20600;-90
2021/05/21 09:05:09;;;;;;;3.73;1.30;;;;;;;15.64;56.48;95620.31;5043921;28;20522;-92
2021/05/21 09:07:38;;;;;;;6.20;1.17;;;;;;;15.54;56.25;95620.44;5043297;28;20451;-90
2021/05/21 09:10:09;;;;;;;5.93;1.30;;;;;;;15.54;56.27;95622.44;5043079;28;20566;-91
2021/05/21 09:12:40;;;;;;;3.90;1.30;;;;;;;15.52;56.08;95627.78;5041957;28;20562;-90
2021/05/21 09:15:13;;;;;;;2.23;1.30;;;;;;;15.61;55.61;95645.97;5041979;28;20898;-90
2021/05/21 09:17:52;;;;;;;2.30;1.17;;;;;;;15.69;55.42;95638.31;5042907;28;20428;-89
2021/05/21 09:20:24;;;;;;;5.83;0.97;;;;;;;15.60;55.33;95641.13;5046898;28;20502;-91
2021/05/21 09:23:15;;;;;;;4.40;0.83;;;;;;;15.58;55.69;95652.59;5051331;28;20851;-91
2021/05/21 09:25:44;;;;;;;2.70;1.23;;;;;;;15.56;56.17;95657.22;5033526;28;20435;-90
2021/05/21 09:28:32;;;;;;;4.70;1.30;;;;;;;15.61;56.59;95659.56;5058493;28;20486;-90
2021/05/21 09:31:10;;;;;;;2.20;1.30;;;;;;;15.54;56.61;95657.78;5047395;28;20497;-90
2021/05/21 09:33:38;;;;;;;5.33;0.93;;;;;;;15.52;56.76;95652.97;5046707;28;20478;-91
2021/05/21 09:36:04;;;;;;;3.60;1.40;;;;;;;15.62;56.51;95661.00;5034506;28;20883;-90
2021/05/21 09:38:32;;;;;;;1.57;1.10;;;;;;;15.60;56.82;95658.16;5028809;28;20912;-92
2021/05/21 09:41:06;;;;;;;2.07;0.73;;;;;;;15.63;56.71;95651.53;5026719;28;20509;-90
2021/05/21 09:43:35;;;;;;;1.67;0.80;;;;;;;15.64;56.68;95644.78;5028133;28;20488;-91
2021/05/21 09:46:08;;;;;;;2.80;1.70;;;;;;;15.68;56.91;95642.31;5028442;28;20418;-92
2021/05/21 09:48:34;;;;;;;3.27;1.27;;;;;;;15.65;57.09;95634.63;5027946;28;20411;-91
2021/05/21 09:51:02;;;;;;;1.93;1.10;;;;;;;15.64;57.83;95633.91;5028985;28;20800;-91
2021/05/21 09:53:28;;;;;;;2.93;0.83;;;;;;;15.62;57.32;95633.09;5035897;28;20454;-90
2021/05/21 09:55:59;;;;;;;5.73;1.40;;;;;;;15.60;57.66;95624.81;5038147;28;20399;-90
2021/05/21 09:58:28;;;;;;;4.20;1.70;;;;;;;15.61;58.23;95643.25;5038336;28;20455;-90
2021/05/21 10:01:08;;;;;;;2.07;0.87;;;;;;;15.60;58.61;95650.00;5030090;28;20406;-90
2021/05/21 10:03:35;;;;;;;3.13;1.47;;;;;;;15.54;57.39;95665.94;5026463;28;20509;-90
2021/05/21 10:06:03;;;;;;;6.93;1.27;;;;;;;15.49;57.17;95639.81;5029494;28;20417;-91
2021/05/21 10:08:29;;;;;;;2.27;1.40;;;;;;;15.37;57.29;95647.25;5033090;28;20462;-90
2021/05/21 10:10:55;;;;;;;2.10;1.00;;;;;;;15.36;57.55;95668.28;5025290;28;20437;-90
2021/05/21 10:13:22;;;;;;;1.73;0.90;;;;;;;15.32;58.63;95676.19;5026753;28;20511;-90
2021/05/21 10:15:50;;;;;;;1.80;0.70;;;;;;;15.33;57.78;95685.06;5031379;28;20422;-90
2021/05/21 10:18:17;;;;;;;3.33;0.80;;;;;;;15.40;58.02;95676.69;5034287;28;20515;-91
2021/05/21 10:20:44;;;;;;;3.30;1.40;;;;;;;15.33;58.40;95671.47;5035236;28;20432;-91
2021/05/21 10:23:16;;;;;;;1.30;0.90;;;;;;;15.25;58.33;95670.97;5033859;28;20555;-92
2021/05/21 10:25:43;;;;;;;1.73;1.00;;;;;;;15.25;58.41;95668.25;5026760;28;20440;-93
2021/05/21 10:28:11;;;;;;;2.60;0.73;;;;;;;15.26;58.51;95675.09;5027508;28;20507;-93
2021/05/21 10:30:38;;;;;;;1.93;0.87;;;;;;;15.34;58.91;95678.31;5030712;28;20484;-92
2021/05/21 10:33:14;;;;;;;2.47;0.73;;;;;;;15.40;58.46;95667.81;5027482;28;20555;-92
2021/05/21 10:35:40;;;;;;;3.67;1.10;;;;;;;15.46;58.65;95663.44;5026379;28;20498;-92
2021/05/21 10:38:26;;;;;;;0.80;0.70;;;;;;;15.59;59.01;95667.63;5025737;28;20469;-92
2021/05/21 10:41:15;;;;;;;1.90;0.90;;;;;;;15.54;58.79;95676.81;5030218;28;20439;-92
2021/05/21 10:43:48;;;;;;;3.43;1.07;;;;;;;15.48;59.87;95681.91;5046785;28;20546;-92
2021/05/21 10:46:15;;;;;;;3.43;1.23;;;;;;;15.68;59.33;95677.69;5053300;28;20480;-92
2021/05/21 10:48:53;;;;;;;1.30;0.87;;;;;;;15.79;59.46;95687.13;5054576;28;20439;-91
2021/05/21 10:51:19;;;;;;;3.33;1.00;;;;;;;15.87;59.27;95684.91;5055451;28;20434;-91
2021/05/21 10:53:48;;;;;;;1.70;1.60;;;;;;;15.85;59.36;95680.03;5053959;28;20469;-91
2021/05/21 10:56:14;;;;;;;1.10;0.83;;;;;;;15.94;59.47;95686.66;5044828;28;20471;-92
2021/05/21 10:58:44;;;;;;;5.80;1.50;;;;;;;15.99;59.15;95683.59;5049200;28;20467;-91
2021/05/21 11:01:22;;;;;;;1.23;1.10;;;;;;;16.09;58.96;95694.34;5050370;28;20426;-93
2021/05/21 11:04:19;;;;;;;1.67;1.47;;;;;;;15.99;57.78;95683.59;5050737;28;20518;-91
2021/05/21 11:06:48;;;;;;;2.73;0.90;;;;;;;16.06;57.88;95692.81;5053716;28;20443;-92
2021/05/21 11:09:18;;;;;;;4.23;1.40;;;;;;;16.11;57.45;95697.19;5052945;28;20856;-92
2021/05/21 11:11:46;;;;;;;1.83;0.93;;;;;;;16.06;57.75;95706.41;5054643;28;20487;-93
2021/05/21 11:14:28;;;;;;;1.67;1.10;;;;;;;16.13;56.87;95718.38;5058553;28;20415;-91
2021/05/21 11:16:57;;;;;;;5.60;0.83;;;;;;;16.01;57.11;95715.63;5059895;28;20423;-93
2021/05/21 12:01:28;;;;;;;1.13;0.80;;;;;;;16.79;53.84;95713.28;5007141;28;20480;-93
2021/05/21 12:03:54;;;;;;;1.90;0.87;;;;;;;16.65;52.20;95709.78;5009109;28;20484;-92
2021/05/21 12:06:21;;;;;;;3.80;1.07;;;;;;;16.63;53.16;95709.66;5010056;28;20483;-93
2021/05/21 12:08:48;;;;;;;0.73;0.50;;;;;;;16.67;53.03;95710.59;5008437;28;20436;-92
2021/05/21 12:11:14;;;;;;;3.60;0.90;;;;;;;16.58;53.00;95706.00;5009324;28;20463;-91
2021/05/21 12:13:41;;;;;;;1.60;0.90;;;;;;;16.71;53.89;95702.66;5009376;28;20483;-92
2021/05/21 12:16:09;;;;;;;2.73;1.13;;;;;;;16.58;51.78;95712.16;5009354;28;20505;-93
2021/05/21 12:18:36;;;;;;;3.57;0.70;;;;;;;16.66;51.92;95711.91;5010195;28;20419;-93
2021/05/21 12:21:03;;;;;;;1.00;0.90;;;;;;;16.74;51.49;95706.91;5017070;28;20428;-92
2021/05/21 12:23:37;;;;;;;2.50;1.10;;;;;;;16.68;51.60;95728.34;5010063;28;20492;-93